Time;durP1;ratioP1;P1;durP2;ratioP2;P2;SDS_P1;SDS_P2;PMS_P1;PMS_P2;Temp;Humidity;BMP_temperature;BMP_pressure;BME280_temperature;BME280_humidity;BME280_pressure;Samples;Min_cycle;Max_cycle;Signal;HPM_P1;HPM_P2
2022/10/31 00:02:19;;;;;;;18.75;11.55;;;13.50;99.90;;;;;;5090210;28;20048;-57
2022/10/31 00:04:45;;;;;;;20.33;12.20;;;13.50;99.90;;;;;;5088254;28;20054;-58
2022/10/31 00:07:10;;;;;;;22.00;13.83;;;13.50;99.90;;;;;;5090190;28;20360;-58
2022/10/31 00:09:36;;;;;;;20.25;12.30;;;13.40;99.90;;;;;;5089533;28;20254;-58
2022/10/31 00:12:01;;;;;;;17.13;10.63;;;13.40;99.90;;;;;;5095299;28;20040;-58
2022/10/31 00:14:27;;;;;;;17.00;11.45;;;13.40;99.90;;;;;;5099225;28;20044;-56
2022/10/31 00:16:52;;;;;;;20.58;11.68;;;13.30;99.90;;;;;;5087651;28;20130;-58
2022/10/31 00:19:18;;;;;;;20.00;11.83;;;13.20;99.90;;;;;;5103102;28;20135;-58
2022/10/31 00:21:43;;;;;;;19.33;11.90;;;13.20;99.90;;;;;;5100335;28;20400;-54
2022/10/31 00:24:10;;;;;;;18.33;12.47;;;13.20;99.90;;;;;;5093202;28;20286;-56
2022/10/31 00:26:35;;;;;;;19.80;11.57;;;13.10;99.90;;;;;;5091907;28;20036;-58
2022/10/31 00:29:01;;;;;;;19.57;10.87;;;13.10;99.90;;;;;;5103939;28;20110;-58
2022/10/31 00:31:27;;;;;;;10.88;9.52;;;13.10;99.90;;;;;;5081552;28;20297;-57
2022/10/31 00:33:53;;;;;;;14.10;9.30;;;13.10;99.90;;;;;;5095965;28;20059;-58
2022/10/31 00:36:19;;;;;;;19.30;12.13;;;13.10;99.90;;;;;;5093507;28;20531;-58
2022/10/31 00:38:46;;;;;;;25.50;12.10;;;13.00;99.90;;;;;;5099494;28;20344;-58
2022/10/31 00:41:13;;;;;;;18.40;11.63;;;13.00;99.90;;;;;;5097253;28;20039;-58
2022/10/31 00:43:39;;;;;;;20.17;11.65;;;13.00;99.90;;;;;;5109412;28;20043;-58
2022/10/31 00:46:04;;;;;;;13.60;9.43;;;13.00;99.90;;;;;;5102558;28;20047;-58
2022/10/31 00:48:30;;;;;;;17.42;10.40;;;12.90;99.90;;;;;;5097005;28;20643;-58
2022/10/31 00:50:56;;;;;;;19.30;10.40;;;12.90;99.90;;;;;;5104229;28;20042;-58
2022/10/31 00:53:22;;;;;;;14.15;10.93;;;12.90;99.90;;;;;;5089330;28;20401;-56
2022/10/31 00:55:47;;;;;;;20.60;11.98;;;12.90;99.90;;;;;;5110265;28;20050;-55
2022/10/31 00:58:13;;;;;;;18.58;10.23;;;12.90;99.90;;;;;;5088493;28;20028;-56
2022/10/31 01:00:39;;;;;;;16.53;10.37;;;12.90;99.90;;;;;;5104140;28;20123;-55
2022/10/31 01:03:04;;;;;;;15.27;10.00;;;12.90;99.90;;;;;;5095260;28;20281;-57
2022/10/31 01:05:30;;;;;;;15.48;10.23;;;12.90;99.90;;;;;;5105430;28;20032;-55
2022/10/31 01:07:56;;;;;;;17.58;10.88;;;12.90;99.90;;;;;;5100203;28;20090;-56
2022/10/31 01:10:22;;;;;;;19.35;10.75;;;12.90;99.90;;;;;;5099476;28;20089;-56
2022/10/31 01:12:48;;;;;;;15.75;10.63;;;12.90;99.90;;;;;;5093964;28;20454;-56
2022/10/31 01:15:21;;;;;;;18.92;11.38;;;12.90;99.90;;;;;;5083131;28;20032;-56
2022/10/31 01:17:47;;;;;;;20.35;13.48;;;12.90;99.90;;;;;;5102807;28;20036;-56
2022/10/31 01:20:14;;;;;;;13.10;9.38;;;12.90;99.90;;;;;;5095148;27;20055;-57
2022/10/31 01:22:40;;;;;;;14.73;8.65;;;12.90;99.90;;;;;;5092397;28;20383;-54
2022/10/31 01:25:06;;;;;;;15.23;9.65;;;12.80;99.90;;;;;;5103864;28;20054;-56
2022/10/31 01:27:32;;;;;;;;;;;12.80;99.90;;;;;;5101326;28;20032;-57
2022/10/31 01:29:57;;;;;;;15.02;9.05;;;12.80;99.90;;;;;;5092921;28;19969;-54
2022/10/31 01:32:23;;;;;;;13.30;9.40;;;12.80;99.90;;;;;;5100139;28;20036;-56
2022/10/31 01:34:49;;;;;;;17.35;9.70;;;12.70;99.90;;;;;;5096376;28;20040;-55
2022/10/31 01:37:14;;;;;;;18.02;10.30;;;12.70;99.90;;;;;;5105945;28;20055;-56
2022/10/31 01:39:40;;;;;;;18.00;9.93;;;12.70;99.90;;;;;;5090914;28;20476;-55
2022/10/31 01:42:05;;;;;;;14.63;9.50;;;12.70;99.90;;;;;;5088941;28;20044;-56
2022/10/31 01:44:31;;;;;;;16.42;9.27;;;12.70;99.90;;;;;;5072748;28;20111;-56
2022/10/31 01:46:59;;;;;;;13.90;9.70;;;12.70;99.90;;;;;;5101624;28;20412;-57
2022/10/31 01:49:49;;;;;;;13.60;9.63;;;12.60;99.90;;;;;;5105472;28;20305;-57
2022/10/31 01:52:24;;;;;;;15.15;9.60;;;12.60;99.90;;;;;;5093319;28;20044;-55
2022/10/31 01:55:22;;;;;;;12.50;8.13;;;12.60;99.90;;;;;;5098754;28;20496;-57
2022/10/31 01:57:52;;;;;;;16.33;10.05;;;12.60;99.90;;;;;;5095758;28;20071;-57
2022/10/31 02:00:19;;;;;;;12.32;9.57;;;12.60;99.90;;;;;;5095733;28;20050;-55
2022/10/31 02:02:46;;;;;;;11.32;8.95;;;12.50;99.90;;;;;;5103340;28;20039;-57
2022/10/31 02:05:17;;;;;;;12.40;8.00;;;12.50;99.90;;;;;;5102553;28;20089;-56
2022/10/31 02:07:59;;;;;;;17.45;10.75;;;12.50;99.90;;;;;;5088263;28;20043;-54
2022/10/31 02:10:26;;;;;;;17.65;10.20;;;12.50;99.90;;;;;;5094342;28;20118;-57
2022/10/31 02:12:54;;;;;;;13.65;9.32;;;12.50;99.90;;;;;;5097212;28;20469;-57
2022/10/31 02:15:20;;;;;;;12.45;8.63;;;12.50;99.90;;;;;;5108315;28;20388;-56
2022/10/31 02:17:46;;;;;;;12.35;8.98;;;12.50;99.90;;;;;;5098810;28;20135;-58
2022/10/31 02:20:22;;;;;;;10.80;8.68;;;12.50;99.90;;;;;;5107091;28;20040;-58
2022/10/31 02:23:24;;;;;;;15.77;8.88;;;12.50;99.90;;;;;;5091309;28;20051;-57
2022/10/31 02:26:07;;;;;;;12.57;8.45;;;12.50;99.90;;;;;;5097295;28;20036;-58
2022/10/31 02:28:51;;;;;;;13.35;8.38;;;12.40;99.90;;;;;;5100235;28;20035;-59
2022/10/31 02:31:32;;;;;;;11.60;8.77;;;12.40;99.90;;;;;;5070370;28;20043;-56
2022/10/31 02:34:21;;;;;;;14.82;8.65;;;12.40;99.90;;;;;;5086890;28;20129;-56
2022/10/31 02:37:20;;;;;;;11.23;8.27;;;12.40;99.90;;;;;;5081008;28;20462;-58
2022/10/31 02:39:55;;;;;;;10.00;6.53;;;12.30;99.90;;;;;;5082543;28;20043;-58
2022/10/31 02:42:23;;;;;;;12.90;8.02;;;12.30;99.90;;;;;;5090930;28;20530;-57
2022/10/31 02:44:58;;;;;;;14.02;8.82;;;12.30;99.90;;;;;;5089854;28;20035;-58
2022/10/31 02:47:28;;;;;;;14.02;8.20;;;12.30;99.90;;;;;;5071211;28;20047;-55
2022/10/31 02:50:08;;;;;;;12.55;8.23;;;12.30;99.90;;;;;;5070952;28;20047;-58
2022/10/31 02:52:34;;;;;;;13.82;8.32;;;12.30;99.90;;;;;;5071108;28;20048;-58
2022/10/31 02:55:29;;;;;;;;;;;12.20;99.90;;;;;;5087565;28;20097;-55
2022/10/31 02:58:00;;;;;;;9.75;7.55;;;12.20;99.90;;;;;;5008584;28;19924;-57
2022/10/31 03:00:26;;;;;;;11.55;8.25;;;12.20;99.90;;;;;;5007571;28;20048;-58
2022/10/31 03:03:08;;;;;;;17.15;8.57;;;12.20;99.90;;;;;;5007828;28;20396;-58
2022/10/31 03:06:00;;;;;;;10.00;7.78;;;12.10;99.90;;;;;;4994273;28;20103;-59
2022/10/31 03:09:09;;;;;;;13.32;9.07;;;12.10;99.90;;;;;;4990118;28;20042;-58
2022/10/31 03:12:18;;;;;;;6.25;4.05;;;12.10;99.90;;;;;;4988913;28;20408;-59
2022/10/31 03:15:08;;;;;;;5.80;4.55;;;11.90;99.90;;;;;;4984178;28;20538;-58
2022/10/31 03:17:53;;;;;;;13.07;7.07;;;11.70;99.90;;;;;;4989632;28;20046;-58
2022/10/31 03:20:23;;;;;;;9.27;7.35;;;11.60;99.90;;;;;;5005258;28;20465;-58
2022/10/31 03:22:49;;;;;;;30.95;9.40;;;11.60;99.90;;;;;;4993844;28;20100;-59
2022/10/31 03:25:16;;;;;;;41.40;10.13;;;11.60;99.90;;;;;;4989916;28;20042;-58
2022/10/31 03:27:44;;;;;;;8.68;7.28;;;11.60;99.90;;;;;;5002292;28;20056;-57
2022/10/31 03:30:10;;;;;;;6.40;5.80;;;11.60;99.90;;;;;;4996737;28;20044;-56
2022/10/31 03:32:55;;;;;;;91.20;10.32;;;11.60;99.90;;;;;;4988738;28;20041;-56
2022/10/31 03:35:23;;;;;;;395.80;21.13;;;11.50;99.90;;;;;;5076224;28;20099;-56
2022/10/31 03:37:51;;;;;;;243.80;17.45;;;11.50;99.90;;;;;;5104887;28;20520;-57
2022/10/31 03:40:21;;;;;;;31.02;8.95;;;11.30;99.90;;;;;;5099012;28;20080;-56
2022/10/31 03:42:54;;;;;;;168.15;10.40;;;11.20;99.90;;;;;;5099198;28;20536;-58
2022/10/31 03:45:30;;;;;;;52.47;5.88;;;11.20;99.90;;;;;;5098098;28;20519;-57
2022/10/31 03:47:58;;;;;;;24.23;5.07;;;11.20;99.90;;;;;;5099085;28;20040;-57
2022/10/31 03:50:29;;;;;;;4.40;4.00;;;11.10;99.90;;;;;;5097347;28;20432;-57
2022/10/31 03:53:05;;;;;;;23.55;5.47;;;11.10;99.90;;;;;;5108487;28;20122;-56
2022/10/31 03:55:48;;;;;;;60.83;6.55;;;11.10;99.90;;;;;;5091859;28;20040;-57
2022/10/31 03:58:21;;;;;;;194.85;10.55;;;11.10;99.90;;;;;;5087342;28;20460;-56
2022/10/31 04:00:50;;;;;;;358.88;15.30;;;11.10;99.90;;;;;;5096063;28;20465;-57
2022/10/31 04:03:22;;;;;;;94.32;6.57;;;11.00;99.90;;;;;;5108487;28;20050;-56
2022/10/31 04:05:51;;;;;;;393.63;19.30;;;10.90;99.90;;;;;;5079002;28;20038;-53
2022/10/31 04:08:21;;;;;;;12.13;4.32;;;10.80;99.90;;;;;;5091837;28;20044;-56
2022/10/31 04:10:49;;;;;;;5.38;4.90;;;10.70;99.90;;;;;;5105017;28;20047;-57
2022/10/31 04:13:21;;;;;;;5.25;4.45;;;10.70;99.90;;;;;;5084059;28;20048;-60
2022/10/31 04:15:47;;;;;;;5.05;4.53;;;10.70;99.90;;;;;;5098210;28;20632;-55
2022/10/31 04:18:13;;;;;;;316.75;16.60;;;10.70;99.90;;;;;;5087323;28;20493;-56
2022/10/31 04:20:41;;;;;;;46.93;4.90;;;10.70;99.90;;;;;;5094724;28;20040;-54
2022/10/31 04:23:19;;;;;;;127.15;7.00;;;10.60;99.90;;;;;;5108027;28;20364;-56
2022/10/31 04:25:44;;;;;;;4.55;1.85;;;10.50;99.90;;;;;;5103141;28;20546;-53
2022/10/31 04:28:10;;;;;;;104.57;6.20;;;10.40;99.90;;;;;;5096882;28;20061;-56
2022/10/31 04:30:35;;;;;;;3.40;3.07;;;10.40;99.90;;;;;;5077367;28;20033;-55
2022/10/31 04:33:01;;;;;;;3.13;2.93;;;10.30;99.90;;;;;;5071488;28;20106;-55
2022/10/31 04:35:26;;;;;;;91.93;6.80;;;10.40;99.90;;;;;;5089746;28;20516;-54
2022/10/31 04:37:52;;;;;;;149.67;8.73;;;10.40;99.90;;;;;;5071509;28;20044;-56
2022/10/31 04:40:17;;;;;;;5.27;2.57;;;10.40;99.90;;;;;;5069444;28;20032;-58
2022/10/31 04:42:43;;;;;;;96.53;5.40;;;10.30;99.90;;;;;;5069546;28;20041;-57
2022/10/31 04:45:09;;;;;;;228.23;11.37;;;10.30;99.90;;;;;;5070968;28;20044;-57
2022/10/31 04:47:34;;;;;;;182.43;9.30;;;10.20;99.90;;;;;;5079402;28;20033;-57
2022/10/31 04:50:00;;;;;;;51.60;4.63;;;10.20;99.90;;;;;;5068277;28;20037;-57
2022/10/31 04:52:26;;;;;;;128.30;7.45;;;10.10;99.90;;;;;;5079580;28;20285;-54
2022/10/31 04:54:51;;;;;;;250.73;10.37;;;10.10;99.90;;;;;;5089172;28;20044;-56
2022/10/31 04:57:17;;;;;;;73.93;5.70;;;10.10;99.90;;;;;;5087600;28;20037;-57
2022/10/31 04:59:42;;;;;;;65.80;4.43;;;10.00;99.90;;;;;;5090303;28;20044;-58
2022/10/31 05:02:08;;;;;;;4.77;2.53;;;10.00;99.90;;;;;;5105283;28;20048;-57
2022/10/31 05:04:34;;;;;;;2.80;2.00;;;10.00;99.90;;;;;;5091649;28;20486;-56
2022/10/31 05:06:59;;;;;;;4.07;3.77;;;9.90;99.90;;;;;;5100733;28;20275;-57
2022/10/31 05:09:25;;;;;;;4.83;4.43;;;10.00;99.90;;;;;;5091772;28;20032;-57
2022/10/31 05:11:50;;;;;;;33.70;4.40;;;10.00;99.90;;;;;;5107612;28;20039;-58
2022/10/31 05:14:16;;;;;;;31.97;5.13;;;10.00;99.90;;;;;;5093782;28;20071;-58
2022/10/31 05:16:41;;;;;;;7.23;4.03;;;10.00;99.90;;;;;;5099552;28;20075;-55
2022/10/31 05:19:07;;;;;;;5.57;5.07;;;10.00;99.90;;;;;;5104246;28;20036;-56
2022/10/31 05:21:32;;;;;;;3.57;3.17;;;10.00;99.90;;;;;;5107306;28;20093;-54
2022/10/31 05:23:58;;;;;;;39.37;4.23;;;9.90;99.90;;;;;;5093272;28;20036;-57
2022/10/31 05:26:23;;;;;;;16.77;3.83;;;9.90;99.90;;;;;;5097216;28;20446;-57
2022/10/31 05:28:49;;;;;;;92.38;5.97;;;9.90;99.90;;;;;;5106437;28;20496;-57
2022/10/31 05:31:14;;;;;;;262.30;12.07;;;9.90;99.90;;;;;;5101436;28;20043;-57
2022/10/31 05:33:40;;;;;;;296.60;14.47;;;9.90;99.90;;;;;;5094552;28;20063;-56
2022/10/31 05:36:06;;;;;;;192.77;11.60;;;9.90;99.90;;;;;;5098366;28;20040;-57
2022/10/31 05:38:31;;;;;;;55.70;7.70;;;9.80;99.90;;;;;;5104850;28;20039;-57
2022/10/31 05:41:00;;;;;;;32.60;8.50;;;9.80;99.90;;;;;;5093992;28;20062;-57
2022/10/31 05:43:27;;;;;;;51.88;9.48;;;9.80;99.90;;;;;;5085526;28;20558;-58
2022/10/31 05:45:53;;;;;;;;;;;9.90;99.90;;;;;;5109933;28;20043;-58
2022/10/31 05:48:18;;;;;;;75.57;12.93;;;9.90;99.90;;;;;;5073960;28;19931;-57
2022/10/31 05:50:44;;;;;;;28.37;12.17;;;10.00;99.90;;;;;;5098080;28;20044;-58
2022/10/31 05:53:10;;;;;;;28.17;9.43;;;10.10;99.90;;;;;;5103259;28;20147;-58
2022/10/31 05:55:35;;;;;;;7.90;7.10;;;10.10;99.90;;;;;;5092318;28;20039;-58
2022/10/31 05:58:01;;;;;;;7.10;5.40;;;10.10;99.90;;;;;;5110192;28;20125;-57
2022/10/31 06:00:27;;;;;;;21.40;5.57;;;10.10;99.90;;;;;;5092649;28;20457;-58
2022/10/31 06:02:58;;;;;;;7.85;5.28;;;10.10;99.90;;;;;;5085213;28;20290;-57
2022/10/31 06:05:24;;;;;;;4.97;4.57;;;10.00;99.90;;;;;;5098329;28;20066;-57
2022/10/31 06:07:50;;;;;;;28.33;8.27;;;10.00;99.90;;;;;;5106130;28;20531;-56
2022/10/31 06:10:15;;;;;;;245.97;20.23;;;10.00;99.90;;;;;;5089341;28;20770;-54
2022/10/31 06:12:41;;;;;;;519.10;27.13;;;9.90;99.90;;;;;;5099969;28;20493;-56
2022/10/31 06:15:08;;;;;;;606.17;32.87;;;9.80;99.90;;;;;;5093703;28;20360;-55
2022/10/31 06:17:34;;;;;;;490.27;26.95;;;9.80;99.90;;;;;;5110866;28;20084;-56
2022/10/31 06:20:00;;;;;;;60.40;11.85;;;9.80;99.90;;;;;;5099537;28;20036;-57
2022/10/31 06:22:26;;;;;;;461.77;23.95;;;9.70;99.90;;;;;;5091652;28;20040;-57
2022/10/31 06:24:52;;;;;;;115.18;11.57;;;9.70;99.90;;;;;;5088713;28;20544;-57
2022/10/31 06:27:17;;;;;;;18.67;10.83;;;9.70;99.90;;;;;;5092916;28;20456;-56
2022/10/31 06:29:43;;;;;;;101.90;9.37;;;9.70;99.90;;;;;;5100547;28;20031;-56
2022/10/31 06:32:12;;;;;;;391.10;21.53;;;9.70;99.90;;;;;;5097549;28;20123;-56
2022/10/31 06:34:41;;;;;;;289.80;15.63;;;9.60;99.90;;;;;;5089407;28;20076;-56
2022/10/31 06:37:08;;;;;;;349.40;19.95;;;9.50;99.90;;;;;;5090980;28;20417;-56
2022/10/31 06:39:33;;;;;;;402.83;20.83;;;9.40;99.90;;;;;;5086555;28;20063;-55
2022/10/31 06:41:59;;;;;;;5.28;4.78;;;9.30;99.90;;;;;;5071292;28;20103;-55
2022/10/31 06:44:24;;;;;;;28.27;6.07;;;9.20;99.90;;;;;;5082071;28;20477;-56
2022/10/31 06:46:50;;;;;;;46.60;8.93;;;9.20;99.90;;;;;;5089992;28;20165;-53
2022/10/31 06:49:16;;;;;;;36.70;8.88;;;9.20;99.90;;;;;;5089150;28;20413;-56
2022/10/31 06:51:42;;;;;;;443.10;24.13;;;9.20;99.90;;;;;;5091093;28;20434;-56
2022/10/31 06:54:07;;;;;;;111.75;10.45;;;9.20;99.90;;;;;;5091141;28;20515;-55
2022/10/31 06:56:33;;;;;;;15.10;6.40;;;9.20;99.90;;;;;;5090555;28;20040;-54
2022/10/31 06:58:59;;;;;;;7.23;6.53;;;9.20;99.90;;;;;;5091543;28;20392;-54
2022/10/31 07:01:24;;;;;;;55.90;9.48;;;9.30;99.90;;;;;;5089021;28;20043;-56
2022/10/31 07:03:50;;;;;;;54.83;6.07;;;9.40;99.90;;;;;;5091196;28;20036;-56
2022/10/31 07:06:15;;;;;;;10.17;4.53;;;9.40;99.90;;;;;;5091263;28;20031;-53
2022/10/31 07:08:41;;;;;;;45.93;5.60;;;9.30;99.90;;;;;;5090312;28;20282;-55
2022/10/31 07:11:07;;;;;;;172.03;10.40;;;9.30;99.90;;;;;;5078923;28;20053;-56
2022/10/31 07:13:32;;;;;;;54.15;5.10;;;9.30;99.90;;;;;;5070499;28;20047;-56
2022/10/31 07:16:04;;;;;;;83.00;6.73;;;9.20;99.90;;;;;;5069681;28;20036;-54
2022/10/31 07:18:30;;;;;;;16.23;6.22;;;9.20;99.90;;;;;;5070897;28;20763;-56
2022/10/31 07:20:55;;;;;;;294.23;18.08;;;9.10;99.90;;;;;;5071610;28;20047;-56
2022/10/31 07:23:21;;;;;;;356.98;18.58;;;9.10;99.90;;;;;;5069927;28;20085;-54
2022/10/31 07:25:47;;;;;;;399.17;22.40;;;9.10;99.90;;;;;;5086480;28;20048;-56
2022/10/31 07:28:13;;;;;;;348.65;21.73;;;9.00;99.90;;;;;;5090412;28;20039;-56
2022/10/31 07:30:38;;;;;;;193.17;17.47;;;9.00;99.90;;;;;;5100003;28;20032;-55
2022/10/31 07:33:05;;;;;;;221.07;21.10;;;9.10;99.90;;;;;;5091942;28;20400;-57
2022/10/31 07:35:31;;;;;;;258.52;21.13;;;9.10;99.90;;;;;;5074274;28;20031;-57
2022/10/31 07:37:57;;;;;;;303.23;23.83;;;9.20;99.90;;;;;;5090302;28;20040;-57
2022/10/31 07:40:23;;;;;;;277.23;21.88;;;9.20;99.90;;;;;;5093223;28;20043;-57
2022/10/31 07:42:51;;;;;;;91.57;14.95;;;9.30;99.90;;;;;;5077036;28;20404;-55
2022/10/31 07:45:19;;;;;;;175.13;19.88;;;9.30;99.90;;;;;;5086136;28;20080;-57
2022/10/31 07:47:49;;;;;;;159.48;19.25;;;9.30;99.90;;;;;;5111162;28;20123;-56
2022/10/31 07:50:20;;;;;;;115.60;17.08;;;9.40;99.90;;;;;;5094432;28;20037;-58
2022/10/31 07:52:46;;;;;;;95.05;18.60;;;9.50;99.90;;;;;;5068778;28;20067;-57
2022/10/31 07:55:13;;;;;;;141.75;24.58;;;9.50;99.90;;;;;;5087261;28;20047;-56
2022/10/31 07:57:39;;;;;;;172.23;29.70;;;9.60;99.90;;;;;;5101795;28;20039;-55
2022/10/31 08:00:06;;;;;;;383.85;45.72;;;9.70;99.90;;;;;;5091303;28;20097;-58
2022/10/31 08:02:32;;;;;;;343.92;46.63;;;9.90;99.90;;;;;;5098980;28;20130;-57
2022/10/31 08:04:57;;;;;;;208.25;35.70;;;10.00;99.90;;;;;;5093572;28;20147;-57
2022/10/31 08:07:23;;;;;;;196.50;33.97;;;10.10;99.90;;;;;;5099063;28;20551;-56
2022/10/31 08:09:48;;;;;;;149.70;32.80;;;10.30;99.90;;;;;;5069849;28;20124;-54
2022/10/31 08:12:14;;;;;;;273.97;39.90;;;10.40;99.90;;;;;;5075596;28;20493;-56
2022/10/31 08:14:39;;;;;;;156.87;33.70;;;10.60;99.90;;;;;;5074675;28;20059;-58
2022/10/31 08:17:05;;;;;;;180.87;38.17;;;10.70;99.90;;;;;;5091250;28;20028;-56
2022/10/31 08:19:30;;;;;;;177.67;37.37;;;10.90;99.90;;;;;;5089427;28;20696;-57
2022/10/31 08:21:56;;;;;;;103.60;35.90;;;11.10;99.90;;;;;;5108064;28;20097;-56
2022/10/31 08:24:22;;;;;;;56.60;35.20;;;11.30;99.90;;;;;;5088583;28;20036;-56
2022/10/31 08:26:48;;;;;;;44.40;30.52;;;11.50;99.90;;;;;;5069836;28;20325;-55
2022/10/31 08:29:14;;;;;;;49.10;31.45;;;11.70;99.90;;;;;;5101961;28;20036;-57
2022/10/31 08:31:40;;;;;;;40.22;26.55;;;12.00;99.90;;;;;;5069167;28;20067;-56
2022/10/31 08:34:05;;;;;;;36.63;24.92;;;12.20;99.90;;;;;;5082035;28;20513;-57
2022/10/31 08:36:31;;;;;;;44.53;26.57;;;12.50;99.90;;;;;;5070380;28;20083;-54
2022/10/31 08:38:56;;;;;;;31.55;22.30;;;12.80;99.90;;;;;;5101754;28;20474;-57
2022/10/31 08:41:22;;;;;;;31.03;21.17;;;13.30;99.90;;;;;;5108835;28;20040;-56
2022/10/31 08:43:48;;;;;;;32.20;23.00;;;13.60;99.90;;;;;;5108642;28;20031;-56
2022/10/31 08:46:13;;;;;;;35.83;21.05;;;13.90;99.90;;;;;;5092530;28;20084;-55
2022/10/31 08:48:39;;;;;;;24.30;18.70;;;14.20;99.90;;;;;;5090675;28;20405;-56
2022/10/31 08:51:05;;;;;;;22.30;18.30;;;14.50;99.90;;;;;;5103712;28;20046;-56
2022/10/31 08:53:31;;;;;;;21.88;17.92;;;14.70;99.90;;;;;;5101305;28;20278;-54
2022/10/31 08:55:56;;;;;;;23.75;18.85;;;14.80;99.90;;;;;;5103436;28;20047;-53
2022/10/31 08:58:23;;;;;;;23.92;18.13;;;14.90;99.90;;;;;;5095662;28;20401;-54
2022/10/31 09:00:51;;;;;;;23.13;17.70;;;14.90;99.90;;;;;;5082877;28;20051;-54
2022/10/31 09:03:20;;;;;;;25.40;17.50;;;15.00;99.90;;;;;;5092272;28;20497;-54
2022/10/31 09:05:46;;;;;;;29.38;17.95;;;14.90;99.90;;;;;;5092673;28;20447;-55
2022/10/31 09:08:12;;;;;;;26.70;18.52;;;15.00;99.90;;;;;;5093274;28;20062;-53
2022/10/31 09:10:38;;;;;;;22.83;17.02;;;15.00;99.90;;;;;;5093518;28;20443;-55
2022/10/31 09:13:07;;;;;;;23.35;16.23;;;15.10;99.90;;;;;;5093165;28;20408;-57
2022/10/31 09:15:35;;;;;;;25.05;15.68;;;15.20;99.90;;;;;;5108324;28;20044;-54
2022/10/31 09:18:00;;;;;;;21.52;16.70;;;15.30;99.90;;;;;;5078743;28;20042;-54
2022/10/31 09:20:27;;;;;;;20.73;15.52;;;15.30;99.90;;;;;;5080586;28;20229;-54
2022/10/31 09:23:01;;;;;;;21.70;14.77;;;15.20;99.90;;;;;;5082872;28;20409;-54
2022/10/31 09:25:27;;;;;;;26.63;17.23;;;15.20;99.90;;;;;;5078614;28;20120;-55
2022/10/31 09:27:57;;;;;;;22.25;14.23;;;15.10;99.90;;;;;;5078234;28;20029;-54
2022/10/31 09:30:23;;;;;;;21.73;14.45;;;15.00;99.90;;;;;;5075626;28;20446;-55
2022/10/31 09:33:01;;;;;;;16.48;13.50;;;14.90;99.90;;;;;;5077579;28;20471;-53
2022/10/31 09:35:27;;;;;;;20.55;14.65;;;14.80;99.90;;;;;;5074055;28;20097;-56
2022/10/31 09:37:57;;;;;;;18.67;14.13;;;14.70;99.90;;;;;;5079747;28;20056;-54
2022/10/31 09:40:32;;;;;;;18.05;13.15;;;14.60;99.90;;;;;;5081518;28;20509;-56
2022/10/31 09:43:31;;;;;;;23.83;15.63;;;14.60;99.90;;;;;;5075697;28;20055;-55
2022/10/31 09:46:24;;;;;;;17.65;12.98;;;14.60;99.90;;;;;;5076143;28;20346;-55
2022/10/31 09:49:27;;;;;;;19.02;14.70;;;14.60;99.90;;;;;;5073196;28;20059;-54
2022/10/31 09:52:17;;;;;;;24.33;16.33;;;14.60;99.90;;;;;;5059248;28;20453;-56
2022/10/31 09:54:59;;;;;;;25.98;15.70;;;14.60;99.90;;;;;;5085704;28;20041;-56
2022/10/31 09:57:29;;;;;;;20.67;15.70;;;14.60;99.90;;;;;;5077162;28;20135;-57
2022/10/31 09:59:56;;;;;;;24.23;17.23;;;14.60;99.90;;;;;;5075322;28;20033;-56
2022/10/31 10:02:36;;;;;;;27.08;18.15;;;14.70;99.90;;;;;;5081617;28;20044;-56
2022/10/31 10:05:12;;;;;;;25.83;15.40;;;14.70;99.90;;;;;;5093112;28;20032;-55
2022/10/31 10:08:07;;;;;;;24.48;17.08;;;14.70;99.90;;;;;;5093661;28;20043;-57
2022/10/31 10:11:28;;;;;;;38.55;19.67;;;14.70;99.90;;;;;;5098846;28;20039;-57
2022/10/31 10:14:21;;;;;;;27.25;18.13;;;14.70;99.90;;;;;;5067218;28;20040;-56
2022/10/31 10:17:11;;;;;;;22.52;16.00;;;14.80;99.90;;;;;;5051899;28;20514;-53
2022/10/31 10:19:51;;;;;;;27.02;16.92;;;14.80;99.90;;;;;;5050335;28;20053;-56
2022/10/31 10:22:28;;;;;;;22.23;17.27;;;14.90;99.90;;;;;;5053163;28;20088;-56
2022/10/31 10:25:12;;;;;;;29.60;15.82;;;14.90;99.90;;;;;;5053507;28;20045;-55
2022/10/31 10:27:58;;;;;;;38.70;16.08;;;15.00;99.90;;;;;;5053355;28;20072;-55
2022/10/31 10:30:29;;;;;;;23.17;15.50;;;15.00;99.90;;;;;;5068996;28;20131;-53
2022/10/31 10:32:58;;;;;;;33.08;15.63;;;15.10;99.90;;;;;;5053156;28;20052;-58
2022/10/31 10:35:36;;;;;;;24.63;16.60;;;15.10;99.90;;;;;;5048743;28;20049;-57
2022/10/31 10:38:17;;;;;;;19.92;14.95;;;15.30;99.90;;;;;;5051930;28;20080;-56
2022/10/31 10:40:42;;;;;;;26.23;16.90;;;15.30;99.90;;;;;;5053156;28;20044;-58
2022/10/31 10:43:23;;;;;;;22.83;17.05;;;15.20;99.90;;;;;;5047579;28;20498;-57
2022/10/31 10:48:50;;;;;;;26.70;16.33;;;15.20;99.90;;;;;;5093601;28;20040;-59
2022/10/31 10:51:39;;;;;;;24.25;16.52;;;15.10;99.90;;;;;;5092585;28;20404;-58
2022/10/31 10:54:16;;;;;;;23.80;14.98;;;15.20;99.90;;;;;;5070949;28;20127;-58
2022/10/31 10:56:45;;;;;;;24.15;15.07;;;15.30;99.90;;;;;;5094578;28;20040;-59
2022/10/31 10:59:15;;;;;;;22.67;14.55;;;15.30;99.90;;;;;;5091554;28;20036;-58
2022/10/31 11:01:41;;;;;;;21.02;14.40;;;15.40;99.90;;;;;;5102290;28;20040;-58
2022/10/31 11:04:29;;;;;;;22.02;14.55;;;15.40;99.90;;;;;;5105552;28;20463;-58
2022/10/31 11:06:58;;;;;;;;;;;15.40;99.90;;;;;;5087530;28;20028;-57
2022/10/31 11:09:24;;;;;;;24.02;14.05;;;15.40;99.90;;;;;;5079245;28;20019;-58
2022/10/31 11:11:49;;;;;;;21.13;15.52;;;15.40;99.90;;;;;;5075213;28;20123;-58
2022/10/31 11:14:17;;;;;;;26.25;16.23;;;15.40;99.90;;;;;;5090177;28;20046;-57
2022/10/31 11:16:47;;;;;;;25.13;16.05;;;15.40;99.90;;;;;;5102685;28;20040;-57
2022/10/31 11:19:19;;;;;;;26.55;16.80;;;15.40;99.90;;;;;;5109103;28;20039;-56
2022/10/31 11:21:47;;;;;;;24.38;14.52;;;15.40;99.90;;;;;;5107736;28;20397;-57
2022/10/31 11:24:22;;;;;;;22.38;15.10;;;15.40;99.90;;;;;;5104831;28;20119;-58
2022/10/31 11:26:49;;;;;;;27.75;16.17;;;15.30;99.90;;;;;;5099305;28;20126;-56
2022/10/31 11:29:21;;;;;;;19.90;14.05;;;15.30;99.90;;;;;;5072583;28;20334;-55
2022/10/31 11:31:48;;;;;;;22.60;15.95;;;15.30;99.90;;;;;;5090660;28;20036;-56
2022/10/31 11:34:23;;;;;;;21.95;14.18;;;15.30;99.90;;;;;;5090217;28;20063;-57
2022/10/31 11:36:49;;;;;;;21.25;13.70;;;15.20;99.90;;;;;;5090752;28;20405;-55
2022/10/31 11:39:21;;;;;;;21.42;14.95;;;15.20;99.90;;;;;;5090579;28;20519;-57
2022/10/31 11:41:47;;;;;;;24.73;15.25;;;15.30;99.90;;;;;;5090553;28;20071;-56
2022/10/31 11:44:23;;;;;;;17.48;13.40;;;15.30;99.90;;;;;;5069940;28;20424;-56
2022/10/31 11:46:51;;;;;;;19.75;13.48;;;15.40;99.90;;;;;;5070578;28;20106;-57
2022/10/31 11:49:39;;;;;;;21.38;12.00;;;15.40;99.90;;;;;;5093911;28;20039;-57
2022/10/31 11:52:08;;;;;;;19.67;11.52;;;15.40;99.90;;;;;;5090017;28;20504;-56
2022/10/31 11:54:45;;;;;;;22.38;11.90;;;15.50;99.90;;;;;;5090143;28;20115;-57
2022/10/31 11:57:27;;;;;;;;;;;15.50;99.90;;;;;;5091059;28;20048;-56
2022/10/31 11:59:56;;;;;;;18.25;10.95;;;15.50;99.90;;;;;;5090197;28;19916;-56
2022/10/31 12:02:22;;;;;;;20.98;12.25;;;15.50;99.90;;;;;;5090069;28;20505;-58
2022/10/31 12:05:02;;;;;;;18.35;12.85;;;15.50;99.90;;;;;;5089845;28;20115;-57
2022/10/31 12:07:27;;;;;;;21.83;14.13;;;15.60;99.90;;;;;;5074577;28;20536;-56
2022/10/31 12:09:53;;;;;;;20.75;14.48;;;15.60;99.90;;;;;;5104279;28;20039;-56
2022/10/31 12:12:43;;;;;;;14.43;11.02;;;15.70;99.90;;;;;;5109817;28;20130;-54
2022/10/31 12:15:27;;;;;;;18.88;12.60;;;15.80;99.90;;;;;;5103597;28;20054;-56
2022/10/31 12:17:59;;;;;;;18.95;10.95;;;15.80;99.90;;;;;;5086851;28;20520;-57
2022/10/31 12:20:27;;;;;;;14.60;11.55;;;15.90;99.90;;;;;;5090189;28;20114;-57
2022/10/31 12:23:14;;;;;;;18.02;11.15;;;16.00;99.90;;;;;;5093633;28;20126;-57
2022/10/31 12:25:40;;;;;;;;;;;16.10;99.90;;;;;;5101826;28;20115;-57
2022/10/31 12:28:31;;;;;;;17.70;10.98;;;16.10;99.90;;;;;;5099975;28;20010;-58
2022/10/31 12:31:32;;;;;;;21.83;12.07;;;16.20;99.90;;;;;;5087039;28;20513;-58
2022/10/31 12:34:35;;;;;;;15.63;12.07;;;16.30;99.90;;;;;;5084049;28;20114;-56
2022/10/31 12:37:36;;;;;;;16.65;10.52;;;16.50;99.90;;;;;;5095288;28;20119;-56
2022/10/31 12:40:29;;;;;;;16.33;11.05;;;16.70;99.90;;;;;;5093763;28;20061;-58
2022/10/31 12:43:14;;;;;;;18.20;9.88;;;17.00;99.90;;;;;;5093369;28;20471;-58
2022/10/31 12:45:59;;;;;;;16.02;9.35;;;17.10;99.90;;;;;;5093981;28;20071;-58
2022/10/31 12:48:45;;;;;;;15.15;9.15;;;17.20;99.90;;;;;;5093578;28;20607;-59
2022/10/31 12:51:19;;;;;;;12.80;8.10;;;17.20;99.90;;;;;;5093915;28;20044;-58
2022/10/31 12:54:22;;;;;;;10.73;7.63;;;17.30;99.90;;;;;;5091721;28;20036;-58
2022/10/31 12:57:12;;;;;;;12.00;8.23;;;17.50;99.90;;;;;;5093788;28;20127;-59